createdAt,value
2023-02-20T00:02:51.774Z,0.70
2023-02-20T00:05:54.766Z,0.68
2023-02-20T00:08:57.991Z,0.82
2023-02-20T00:12:00.838Z,0.70
2023-02-20T00:15:04.810Z,0.50
2023-02-20T00:18:08.104Z,0.52
2023-02-20T00:21:10.718Z,0.90
2023-02-20T00:24:14.303Z,0.82
2023-02-20T00:27:17.227Z,0.60
2023-02-20T00:30:24.231Z,0.73
2023-02-20T00:33:26.893Z,0.85
2023-02-20T00:36:29.676Z,0.60
2023-02-20T00:39:32.740Z,0.60
2023-02-20T00:42:35.727Z,1.02
2023-02-20T00:45:38.313Z,0.75
2023-02-20T00:48:41.207Z,1.10
2023-02-20T00:51:58.574Z,0.95
2023-02-20T00:55:01.448Z,0.77
2023-02-20T00:58:04.118Z,0.65
2023-02-20T01:01:07.610Z,0.95
2023-02-20T01:04:10.416Z,0.62
2023-02-20T01:07:13.269Z,0.75
2023-02-20T01:10:16.118Z,0.70
2023-02-20T01:13:19.501Z,0.88
2023-02-20T01:16:22.148Z,0.93
2023-02-20T01:19:25.387Z,0.60
2023-02-20T01:22:28.786Z,0.60
2023-02-20T01:25:31.835Z,0.77
2023-02-20T01:28:34.359Z,1.00
2023-02-20T01:31:39.384Z,1.45
2023-02-20T01:34:44.451Z,0.95
2023-02-20T01:37:47.335Z,0.65
2023-02-20T01:40:50.405Z,1.02
2023-02-20T01:43:53.236Z,1.23
2023-02-20T01:46:58.185Z,0.82
2023-02-20T01:50:04.855Z,0.98
2023-02-20T01:53:13.772Z,0.65
2023-02-20T01:56:18.856Z,0.98
2023-02-20T01:59:23.406Z,0.88
2023-02-20T02:02:30.837Z,0.50
2023-02-20T02:08:39.872Z,1.15
2023-02-20T02:11:42.896Z,0.80
2023-02-20T02:14:45.496Z,1.70
2023-02-20T02:17:51.484Z,1.35
2023-02-20T02:21:21.921Z,1.15
2023-02-20T02:24:57.291Z,0.62
2023-02-20T02:28:32.151Z,1.48
2023-02-20T02:31:53.211Z,1.45
2023-02-20T02:35:18.630Z,0.88
2023-02-20T02:38:52.775Z,1.55
2023-02-20T02:42:26.456Z,1.12
2023-02-20T02:45:38.671Z,1.30
2023-02-20T02:49:07.170Z,0.90
2023-02-20T02:52:12.343Z,1.20
2023-02-20T02:55:36.523Z,1.55
2023-02-20T02:58:39.474Z,1.17
2023-02-20T03:01:48.923Z,1.42
2023-02-20T03:04:54.910Z,1.23
2023-02-20T03:07:59.108Z,1.25
2023-02-20T03:11:06.852Z,0.90
2023-02-20T03:17:42.974Z,1.50
2023-02-20T03:20:52.289Z,1.45
2023-02-20T03:24:00.346Z,1.15
2023-02-20T03:27:04.618Z,1.62
2023-02-20T03:30:17.703Z,0.88
2023-02-20T03:33:51.697Z,1.12
2023-02-20T03:37:18.349Z,0.98
2023-02-20T03:40:45.348Z,2.05
2023-02-20T03:43:48.690Z,1.55
2023-02-20T03:46:53.982Z,1.00
2023-02-20T03:49:58.304Z,1.33
2023-02-20T03:53:01.318Z,0.93
2023-02-20T03:56:09.251Z,1.05
2023-02-20T03:59:19.822Z,1.30
2023-02-20T04:02:28.756Z,0.70
2023-02-20T04:05:37.385Z,1.10
2023-02-20T04:09:02.660Z,1.00
2023-02-20T04:12:30.291Z,1.15
2023-02-20T04:15:34.194Z,1.40
2023-02-20T04:18:37.410Z,1.27
2023-02-20T04:21:46.719Z,1.10
2023-02-20T04:24:57.248Z,1.00
2023-02-20T04:28:03.466Z,0.90
2023-02-20T04:31:07.380Z,1.45
2023-02-20T04:34:10.605Z,1.40
2023-02-20T04:37:17.396Z,0.90
2023-02-20T04:40:22.351Z,1.25
2023-02-20T04:43:25.514Z,0.90
2023-02-20T04:46:28.653Z,1.12
2023-02-20T04:49:32.782Z,1.12
2023-02-20T04:52:36.136Z,0.90
2023-02-20T04:55:39.075Z,0.75
2023-02-20T04:58:46.946Z,1.42
2023-02-20T05:01:54.832Z,1.55
2023-02-20T05:04:57.381Z,1.08
2023-02-20T05:08:09.146Z,1.52
2023-02-20T05:11:11.729Z,1.27
2023-02-20T05:14:15.260Z,0.90
2023-02-20T05:17:17.881Z,1.17
2023-02-20T05:20:21.320Z,1.27
2023-02-20T05:23:26.846Z,1.10
2023-02-20T05:26:29.770Z,1.67
2023-02-20T05:29:32.373Z,1.40
2023-02-20T05:32:35.510Z,1.05
2023-02-20T05:35:40.079Z,1.35
2023-02-20T05:38:47.883Z,1.25
2023-02-20T05:41:50.656Z,1.50
2023-02-20T05:44:53.491Z,1.77
2023-02-20T05:47:56.096Z,1.40
2023-02-20T05:50:58.969Z,1.08
2023-02-20T05:54:01.640Z,1.30
2023-02-20T05:57:05.605Z,1.37
2023-02-20T06:00:08.897Z,1.48
2023-02-20T06:03:15.937Z,1.52
2023-02-20T06:06:19.967Z,1.00
2023-02-20T06:09:23.085Z,1.02
2023-02-20T06:12:26.150Z,1.12
2023-02-20T06:15:28.727Z,1.12
2023-02-20T06:18:31.942Z,1.00
2023-02-20T06:21:36.076Z,1.35
2023-02-20T06:24:39.005Z,1.20
2023-02-20T06:27:41.640Z,1.30
2023-02-20T06:30:44.749Z,0.80
2023-02-20T06:33:47.425Z,1.58
2023-02-20T06:36:50.291Z,1.17
2023-02-20T06:39:52.960Z,1.65
2023-02-20T06:42:55.815Z,0.77
2023-02-20T06:45:58.376Z,1.02
2023-02-20T06:49:01.470Z,1.02
2023-02-20T06:52:06.227Z,1.62
2023-02-20T06:55:09.204Z,0.82
2023-02-20T06:58:11.843Z,0.80
2023-02-20T07:01:15.824Z,1.23
2023-02-20T07:04:21.216Z,1.50
2023-02-20T07:07:24.066Z,1.15
2023-02-20T07:10:27.784Z,1.55
2023-02-20T07:13:30.720Z,1.52
2023-02-20T07:16:33.343Z,0.85
2023-02-20T07:19:36.212Z,1.23
2023-02-20T07:22:38.833Z,1.12
2023-02-20T07:25:41.843Z,1.23
2023-02-20T07:28:44.463Z,1.10
2023-02-20T07:31:47.519Z,0.90
2023-02-20T07:35:02.961Z,0.70
2023-02-20T07:38:07.874Z,0.87
2023-02-20T07:41:10.748Z,0.62
2023-02-20T07:44:14.913Z,0.68
2023-02-20T07:47:17.602Z,0.85
2023-02-20T07:50:20.740Z,1.00
2023-02-20T07:53:23.510Z,0.98
2023-02-20T07:56:26.603Z,0.85
2023-02-20T07:59:29.286Z,0.68
2023-02-20T08:02:32.268Z,0.90
2023-02-20T08:05:48.204Z,1.23
2023-02-20T08:08:52.433Z,1.48
2023-02-20T08:11:55.994Z,1.27
2023-02-20T08:14:58.526Z,1.08
2023-02-20T08:18:01.401Z,1.37
2023-02-20T08:21:04.443Z,1.48
2023-02-20T08:24:07.471Z,1.20
2023-02-20T08:27:10.068Z,1.45
2023-02-20T08:30:24.140Z,1.40
2023-02-20T08:33:26.697Z,1.85
2023-02-20T08:36:29.723Z,1.62
2023-02-20T08:39:32.329Z,2.40
2023-02-20T08:42:35.869Z,2.03
2023-02-20T08:45:38.512Z,1.75
2023-02-20T08:48:41.898Z,1.67
2023-02-20T08:51:49.043Z,2.37
2023-02-20T08:54:52.526Z,2.37
2023-02-20T08:57:55.959Z,2.08
2023-02-20T09:00:58.942Z,1.92
2023-02-20T09:04:02.233Z,2.20
2023-02-20T09:07:05.122Z,1.75
2023-02-20T09:10:09.443Z,1.77
2023-02-20T09:13:13.646Z,2.08
2023-02-20T09:16:19.793Z,2.08
2023-02-20T09:19:24.721Z,2.10
2023-02-20T09:22:27.567Z,2.37
2023-02-20T09:25:31.524Z,2.67
2023-02-20T09:28:34.169Z,1.95
2023-02-20T09:31:37.184Z,2.50
2023-02-20T09:34:40.452Z,2.70
2023-02-20T09:37:44.916Z,2.20
2023-02-20T09:40:50.457Z,1.87
2023-02-20T09:43:59.487Z,2.50
2023-02-20T09:47:16.095Z,2.00
2023-02-20T09:50:34.794Z,2.40
2023-02-20T09:54:09.667Z,2.75
2023-02-20T09:57:19.090Z,2.17
2023-02-20T10:00:36.999Z,2.30
2023-02-20T10:04:04.773Z,2.55
2023-02-20T10:07:25.004Z,2.70
2023-02-20T10:10:39.397Z,2.60
2023-02-20T10:13:57.061Z,2.58
2023-02-20T10:17:26.347Z,2.25
2023-02-20T10:21:03.537Z,2.80
2023-02-20T10:24:21.663Z,2.67
2023-02-20T10:27:39.616Z,2.60
2023-02-20T10:31:01.365Z,3.33
2023-02-20T10:34:13.107Z,2.60
2023-02-20T10:37:21.690Z,3.08
2023-02-20T10:43:46.188Z,3.08
2023-02-20T10:47:03.700Z,2.60
2023-02-20T10:50:17.072Z,2.87
2023-02-20T10:53:26.453Z,2.58
2023-02-20T10:56:47.579Z,2.28
2023-02-20T11:00:11.001Z,2.90
2023-02-20T11:03:25.425Z,2.50
2023-02-20T11:06:38.271Z,2.70
2023-02-20T11:09:42.155Z,2.47
2023-02-20T11:12:50.426Z,3.10
2023-02-20T11:15:56.980Z,2.25
2023-02-20T11:19:16.725Z,2.62
2023-02-20T11:22:48.699Z,2.92
2023-02-20T11:25:51.557Z,3.10
2023-02-20T11:29:12.764Z,3.00
2023-02-20T11:32:37.051Z,2.97
2023-02-20T11:35:42.390Z,2.85
2023-02-20T11:38:45.931Z,2.83
2023-02-20T11:41:51.694Z,3.03
2023-02-20T11:45:17.833Z,3.03
2023-02-20T11:48:21.384Z,2.40
2023-02-20T11:51:45.463Z,3.00
2023-02-20T11:55:22.341Z,2.90
2023-02-20T11:58:27.061Z,2.62
2023-02-20T12:01:36.910Z,2.78
2023-02-20T12:04:39.927Z,2.97
2023-02-20T12:07:51.594Z,2.47
2023-02-20T12:11:01.092Z,2.30
2023-02-20T12:14:14.677Z,3.15
2023-02-20T12:17:39.905Z,2.87
2023-02-20T12:20:53.641Z,2.80
2023-02-20T12:23:59.206Z,2.70
2023-02-20T12:27:08.809Z,2.97
2023-02-20T12:30:30.430Z,2.65
2023-02-20T12:34:05.433Z,2.40
2023-02-20T12:37:08.216Z,3.15
2023-02-20T12:40:20.009Z,2.60
2023-02-20T12:43:33.517Z,2.97
2023-02-20T12:46:45.202Z,3.03
2023-02-20T12:49:59.105Z,2.60
2023-02-20T12:53:10.660Z,2.83
2023-02-20T12:56:38.257Z,2.80
2023-02-20T13:00:01.922Z,3.55
2023-02-20T13:03:07.621Z,3.17
2023-02-20T13:06:13.710Z,2.80
2023-02-20T13:09:25.335Z,3.20
2023-02-20T13:12:28.110Z,2.85
2023-02-20T13:15:43.589Z,2.60
2023-02-20T13:18:51.833Z,3.10
2023-02-20T13:21:56.507Z,2.62
2023-02-20T13:25:44.263Z,2.95
2023-02-20T13:28:47.500Z,2.60
2023-02-20T13:31:55.479Z,2.80
2023-02-20T13:38:22.455Z,2.85
2023-02-20T13:41:25.393Z,2.72
2023-02-20T13:44:28.711Z,2.40
2023-02-20T13:47:38.073Z,2.45
2023-02-20T13:50:41.448Z,2.50
2023-02-20T13:53:49.083Z,2.42
2023-02-20T13:57:01.310Z,3.08
2023-02-20T14:00:20.321Z,2.20
2023-02-20T14:03:28.836Z,2.40
2023-02-20T14:06:31.565Z,2.30
2023-02-20T14:09:34.525Z,2.05
2023-02-20T14:12:37.244Z,2.50
2023-02-20T14:15:46.698Z,2.20
2023-02-20T14:18:49.495Z,2.70
2023-02-20T14:21:52.697Z,2.03
2023-02-20T14:25:16.998Z,1.60
2023-02-20T14:28:20.036Z,2.12
2023-02-20T14:31:33.016Z,2.12
2023-02-20T14:34:49.158Z,2.10
2023-02-20T14:38:10.539Z,2.20
2023-02-20T14:41:18.870Z,2.30
2023-02-20T14:44:21.927Z,2.20
2023-02-20T14:47:25.018Z,1.90
2023-02-20T14:50:35.193Z,2.00
2023-02-20T14:53:38.440Z,2.05
2023-02-20T14:56:41.380Z,2.42
2023-02-20T14:59:44.662Z,2.30
2023-02-20T15:02:50.177Z,2.05
2023-02-20T15:05:54.669Z,2.22
2023-02-20T15:09:02.113Z,2.10
2023-02-20T15:12:09.553Z,2.30
2023-02-20T15:15:15.280Z,2.20
2023-02-20T15:18:42.021Z,2.10
2023-02-20T15:21:56.338Z,1.85
2023-02-20T15:25:24.723Z,1.90
2023-02-20T15:28:31.656Z,1.60
2023-02-20T15:31:34.732Z,2.20
2023-02-20T15:34:38.428Z,1.87
2023-02-20T15:37:49.211Z,2.00
2023-02-20T15:40:57.826Z,2.10
2023-02-20T15:44:00.697Z,1.90
2023-02-20T15:47:03.458Z,2.10
2023-02-20T15:50:06.632Z,1.65
2023-02-20T15:53:15.589Z,2.00
2023-02-20T15:56:18.965Z,2.50
2023-02-20T15:59:21.716Z,2.60
2023-02-20T16:02:24.989Z,3.22
2023-02-20T16:05:29.008Z,3.67
2023-02-20T16:08:32.100Z,4.40
2023-02-20T16:11:46.642Z,4.45
2023-02-20T16:14:53.684Z,4.70
2023-02-20T16:17:56.659Z,4.05
2023-02-20T16:20:59.926Z,4.45
2023-02-20T16:24:02.975Z,4.62
2023-02-20T16:27:18.267Z,4.90
2023-02-20T16:30:38.201Z,4.25
2023-02-20T16:33:41.119Z,4.03
2023-02-20T16:36:44.234Z,5.12
2023-02-20T16:39:47.719Z,4.87
2023-02-20T16:42:51.041Z,4.50
2023-02-20T16:45:54.893Z,4.43
2023-02-20T16:48:57.865Z,4.93
2023-02-20T16:52:01.534Z,4.15
2023-02-20T16:55:18.878Z,5.05
2023-02-20T16:58:21.614Z,4.72
2023-02-20T17:01:25.218Z,4.28
2023-02-20T17:04:28.313Z,5.03
2023-02-20T17:07:31.388Z,4.50
2023-02-20T17:10:35.136Z,4.40
2023-02-20T17:13:38.095Z,4.57
2023-02-20T17:16:40.989Z,4.25
2023-02-20T17:19:44.564Z,4.28
2023-02-20T17:23:02.775Z,4.32
2023-02-20T17:26:09.740Z,4.68
2023-02-20T17:29:13.014Z,5.07
2023-02-20T17:32:17.043Z,4.32
2023-02-20T17:35:19.824Z,4.90
2023-02-20T17:38:24.329Z,5.45
2023-02-20T17:41:27.322Z,4.80
2023-02-20T17:44:31.851Z,4.65
2023-02-20T17:47:35.118Z,4.80
2023-02-20T17:50:38.647Z,5.18
2023-02-20T17:53:41.826Z,5.50
2023-02-20T17:56:46.523Z,4.43
2023-02-20T17:59:49.499Z,5.18
2023-02-20T18:02:53.494Z,4.40
2023-02-20T18:05:56.632Z,5.22
2023-02-20T18:09:00.353Z,5.78
2023-02-20T18:12:04.267Z,5.82
2023-02-20T18:15:07.510Z,5.20
2023-02-20T18:18:14.510Z,5.35
2023-02-20T18:21:19.939Z,5.45
2023-02-20T18:24:25.471Z,5.20
2023-02-20T18:27:28.191Z,4.75
2023-02-20T18:30:33.530Z,5.43
2023-02-20T18:33:36.554Z,5.28
2023-02-20T18:36:40.020Z,5.43
2023-02-20T18:39:44.225Z,5.62
2023-02-20T18:42:47.529Z,4.75
2023-02-20T18:45:50.698Z,5.47
2023-02-20T18:48:54.654Z,4.40
2023-02-20T18:51:57.753Z,4.80
2023-02-20T18:55:01.964Z,4.40
2023-02-20T18:58:05.134Z,4.40
2023-02-20T19:01:19.335Z,3.53
2023-02-20T19:04:22.563Z,4.03
2023-02-20T19:07:25.721Z,3.45
2023-02-20T19:10:28.924Z,3.87
2023-02-20T19:13:32.096Z,3.25
2023-02-20T19:16:35.100Z,3.42
2023-02-20T19:19:38.411Z,3.15
2023-02-20T19:22:41.372Z,3.15
2023-02-20T19:25:44.538Z,3.40
2023-02-20T19:28:49.605Z,3.22
2023-02-20T19:31:54.124Z,3.00
2023-02-20T19:34:56.924Z,3.50
2023-02-20T19:38:00.150Z,3.35
2023-02-20T19:41:06.570Z,3.03
2023-02-20T19:44:16.070Z,3.70
2023-02-20T19:47:19.475Z,3.37
2023-02-20T19:50:23.491Z,3.08
2023-02-20T19:53:26.517Z,3.42
2023-02-20T19:56:30.227Z,3.78
2023-02-20T19:59:33.123Z,3.30
2023-02-20T20:02:36.386Z,3.20
2023-02-20T20:05:39.328Z,2.55
2023-02-20T20:09:01.878Z,2.47
2023-02-20T20:12:26.234Z,3.17
2023-02-20T20:15:29.595Z,3.28
2023-02-20T20:18:32.869Z,3.72
2023-02-20T20:21:36.816Z,3.58
2023-02-20T20:24:40.005Z,3.42
2023-02-20T20:27:43.165Z,3.80
2023-02-20T20:30:46.959Z,4.65
2023-02-20T20:33:51.950Z,3.83
2023-02-20T20:36:55.056Z,3.70
2023-02-20T20:39:59.621Z,4.03
2023-02-20T20:43:03.120Z,4.00
2023-02-20T20:46:06.110Z,4.45
2023-02-20T20:49:10.918Z,4.22
2023-02-20T20:52:13.842Z,4.20
2023-02-20T20:55:17.207Z,4.00
2023-02-20T20:58:19.933Z,4.35
2023-02-20T21:01:23.070Z,5.05
2023-02-20T21:04:26.922Z,4.70
2023-02-20T21:07:30.050Z,4.32
2023-02-20T21:10:33.965Z,4.03
2023-02-20T21:13:37.053Z,4.22
2023-02-20T21:16:39.806Z,4.70
2023-02-20T21:19:43.191Z,4.05
2023-02-20T21:22:47.170Z,4.50
2023-02-20T21:25:50.234Z,5.62
2023-02-20T21:28:55.213Z,3.90
2023-02-20T21:31:58.673Z,4.53
2023-02-20T21:35:01.266Z,4.35
2023-02-20T21:38:04.183Z,4.90
2023-02-20T21:41:06.885Z,4.70
2023-02-20T21:44:27.367Z,4.45
2023-02-20T21:47:30.197Z,4.43
2023-02-20T21:50:33.201Z,4.35
2023-02-20T21:53:36.106Z,4.70
2023-02-20T21:56:39.055Z,3.83
2023-02-20T21:59:43.921Z,4.90
2023-02-20T22:02:46.879Z,4.60
2023-02-20T22:05:49.892Z,4.68
2023-02-20T22:09:11.947Z,4.62
2023-02-20T22:12:35.422Z,5.10
2023-02-20T22:15:57.104Z,4.57
2023-02-20T22:19:18.711Z,4.97
2023-02-20T22:22:39.796Z,5.47
2023-02-20T22:26:01.270Z,4.43
2023-02-20T22:29:23.561Z,4.10
2023-02-20T22:32:45.244Z,4.40
2023-02-20T22:36:06.208Z,4.30
2023-02-20T22:39:31.717Z,4.68
2023-02-20T22:42:52.739Z,4.32
2023-02-20T22:46:14.375Z,4.30
2023-02-20T22:49:35.282Z,5.25
2023-02-20T22:52:56.728Z,3.95
2023-02-20T22:56:17.691Z,4.35
2023-02-20T22:59:39.517Z,3.62
2023-02-20T23:03:01.030Z,3.87
2023-02-20T23:06:22.534Z,4.25
2023-02-20T23:09:43.961Z,4.15
2023-02-20T23:13:05.722Z,4.53
2023-02-20T23:16:26.735Z,4.45
2023-02-20T23:19:48.381Z,3.87
2023-02-20T23:23:10.606Z,4.03
2023-02-20T23:26:32.001Z,3.75
2023-02-20T23:29:53.494Z,4.25
2023-02-20T23:33:14.997Z,2.90
2023-02-20T23:36:35.979Z,2.87
2023-02-20T23:40:00.024Z,3.55
2023-02-20T23:43:21.867Z,3.28
2023-02-20T23:46:43.503Z,3.30
2023-02-20T23:50:04.927Z,2.83
2023-02-20T23:53:27.404Z,3.28
2023-02-20T23:56:48.987Z,3.35
